sensor_id;sensor_type;location;lat;lon;timestamp;P1;P2;P0
46839;PMS5003;32578;50.710;5.026;2023-04-07T00:02:04;2;2;
46839;PMS5003;32578;50.710;5.026;2023-04-07T00:04:29;2;2;
46839;PMS5003;32578;50.710;5.026;2023-04-07T00:06:58;2;2;
46839;PMS5003;32578;50.710;5.026;2023-04-07T00:09:26;2;2;
46839;PMS5003;32578;50.710;5.026;2023-04-07T00:11:50;2;2;
46839;PMS5003;32578;50.710;5.026;2023-04-07T00:14:17;0;0;
46839;PMS5003;32578;50.710;5.026;2023-04-07T00:16:45;0;0;
46839;PMS5003;32578;50.710;5.026;2023-04-07T00:19:11;2;2;
46839;PMS5003;32578;50.710;5.026;2023-04-07T00:21:36;2;2;
46839;PMS5003;32578;50.710;5.026;2023-04-07T00:24:02;2;2;
46839;PMS5003;32578;50.710;5.026;2023-04-07T00:26:27;0;0;
46839;PMS5003;32578;50.710;5.026;2023-04-07T00:28:55;5;5;
46839;PMS5003;32578;50.710;5.026;2023-04-07T00:31:20;1;1;
46839;PMS5003;32578;50.710;5.026;2023-04-07T00:33:48;1;1;
46839;PMS5003;32578;50.710;5.026;2023-04-07T00:36:11;2;2;
46839;PMS5003;32578;50.710;5.026;2023-04-07T00:38:36;1;1;
46839;PMS5003;32578;50.710;5.026;2023-04-07T00:41:03;2;2;
46839;PMS5003;32578;50.710;5.026;2023-04-07T00:43:28;3;3;
46839;PMS5003;32578;50.710;5.026;2023-04-07T00:45:54;1;1;
46839;PMS5003;32578;50.710;5.026;2023-04-07T00:48:19;4;4;
46839;PMS5003;32578;50.710;5.026;2023-04-07T00:50:44;4;4;
46839;PMS5003;32578;50.710;5.026;2023-04-07T00:53:10;2;2;
46839;PMS5003;32578;50.710;5.026;2023-04-07T00:55:37;3;3;
46839;PMS5003;32578;50.710;5.026;2023-04-07T00:58:02;1;1;
46839;PMS5003;32578;50.710;5.026;2023-04-07T01:00:27;2;2;
46839;PMS5003;32578;50.710;5.026;2023-04-07T01:02:57;4;4;
46839;PMS5003;32578;50.710;5.026;2023-04-07T01:05:20;4;4;
46839;PMS5003;32578;50.710;5.026;2023-04-07T01:07:49;1;1;
46839;PMS5003;32578;50.710;5.026;2023-04-07T01:10:16;2;2;
46839;PMS5003;32578;50.710;5.026;2023-04-07T01:12:42;3;3;
46839;PMS5003;32578;50.710;5.026;2023-04-07T01:15:06;1;1;
46839;PMS5003;32578;50.710;5.026;2023-04-07T01:17:31;2;2;
46839;PMS5003;32578;50.710;5.026;2023-04-07T01:19:58;1;1;
46839;PMS5003;32578;50.710;5.026;2023-04-07T01:22:25;2;2;
46839;PMS5003;32578;50.710;5.026;2023-04-07T01:24:57;1;1;
46839;PMS5003;32578;50.710;5.026;2023-04-07T01:27:18;1;1;
46839;PMS5003;32578;50.710;5.026;2023-04-07T01:29:41;1;1;
46839;PMS5003;32578;50.710;5.026;2023-04-07T01:32:09;5;5;
46839;PMS5003;32578;50.710;5.026;2023-04-07T01:34:34;1;1;
46839;PMS5003;32578;50.710;5.026;2023-04-07T01:37:00;2;2;
46839;PMS5003;32578;50.710;5.026;2023-04-07T01:39:26;2;2;
46839;PMS5003;32578;50.710;5.026;2023-04-07T01:41:52;1;1;
46839;PMS5003;32578;50.710;5.026;2023-04-07T01:44:19;1;1;
46839;PMS5003;32578;50.710;5.026;2023-04-07T01:46:43;1;1;
46839;PMS5003;32578;50.710;5.026;2023-04-07T01:49:10;3;3;
46839;PMS5003;32578;50.710;5.026;2023-04-07T01:51:35;2;2;
46839;PMS5003;32578;50.710;5.026;2023-04-07T01:54:01;1;1;
46839;PMS5003;32578;50.710;5.026;2023-04-07T01:56:28;1;1;
46839;PMS5003;32578;50.710;5.026;2023-04-07T01:58:54;1;1;
46839;PMS5003;32578;50.710;5.026;2023-04-07T02:01:31;2;2;
46839;PMS5003;32578;50.710;5.026;2023-04-07T02:03:48;3;3;
46839;PMS5003;32578;50.710;5.026;2023-04-07T02:06:12;2;2;
46839;PMS5003;32578;50.710;5.026;2023-04-07T02:08:41;1;1;
46839;PMS5003;32578;50.710;5.026;2023-04-07T02:11:04;3;3;
46839;PMS5003;32578;50.710;5.026;2023-04-07T02:13:30;0;0;
46839;PMS5003;32578;50.710;5.026;2023-04-07T02:15:56;3;3;
46839;PMS5003;32578;50.710;5.026;2023-04-07T02:18:22;1;1;
46839;PMS5003;32578;50.710;5.026;2023-04-07T02:20:48;0;0;
46839;PMS5003;32578;50.710;5.026;2023-04-07T02:23:13;2;2;
46839;PMS5003;32578;50.710;5.026;2023-04-07T02:25:38;3;3;
46839;PMS5003;32578;50.710;5.026;2023-04-07T02:28:04;2;2;
46839;PMS5003;32578;50.710;5.026;2023-04-07T02:30:29;2;2;
46839;PMS5003;32578;50.710;5.026;2023-04-07T02:32:55;2;2;
46839;PMS5003;32578;50.710;5.026;2023-04-07T02:35:20;3;3;
46839;PMS5003;32578;50.710;5.026;2023-04-07T02:37:49;0;0;
46839;PMS5003;32578;50.710;5.026;2023-04-07T02:40:15;1;1;
46839;PMS5003;32578;50.710;5.026;2023-04-07T02:42:42;1;1;
46839;PMS5003;32578;50.710;5.026;2023-04-07T02:45:06;1;1;
46839;PMS5003;32578;50.710;5.026;2023-04-07T02:47:32;1;1;
46839;PMS5003;32578;50.710;5.026;2023-04-07T02:49:58;1;1;
46839;PMS5003;32578;50.710;5.026;2023-04-07T02:52:25;1;1;
46839;PMS5003;32578;50.710;5.026;2023-04-07T02:54:49;1;1;
46839;PMS5003;32578;50.710;5.026;2023-04-07T02:57:17;1;1;
46839;PMS5003;32578;50.710;5.026;2023-04-07T02:59:42;2;2;
46839;PMS5003;32578;50.710;5.026;2023-04-07T03:02:07;1;1;
46839;PMS5003;32578;50.710;5.026;2023-04-07T03:04:33;2;2;
46839;PMS5003;32578;50.710;5.026;2023-04-07T03:06:59;2;2;
46839;PMS5003;32578;50.710;5.026;2023-04-07T03:09:29;1;1;
46839;PMS5003;32578;50.710;5.026;2023-04-07T03:11:54;2;2;
46839;PMS5003;32578;50.710;5.026;2023-04-07T03:14:20;1;1;
46839;PMS5003;32578;50.710;5.026;2023-04-07T03:16:46;1;1;
46839;PMS5003;32578;50.710;5.026;2023-04-07T03:19:14;0;0;
46839;PMS5003;32578;50.710;5.026;2023-04-07T03:21:37;0;0;
46839;PMS5003;32578;50.710;5.026;2023-04-07T03:24:04;2;2;
46839;PMS5003;32578;50.710;5.026;2023-04-07T03:26:29;2;2;
46839;PMS5003;32578;50.710;5.026;2023-04-07T03:28:57;1;1;
46839;PMS5003;32578;50.710;5.026;2023-04-07T03:31:23;3;3;
46839;PMS5003;32578;50.710;5.026;2023-04-07T03:33:53;0;0;
46839;PMS5003;32578;50.710;5.026;2023-04-07T03:36:17;3;3;
46839;PMS5003;32578;50.710;5.026;2023-04-07T03:38:41;2;2;
46839;PMS5003;32578;50.710;5.026;2023-04-07T03:41:07;2;2;
46839;PMS5003;32578;50.710;5.026;2023-04-07T03:43:32;2;2;
46839;PMS5003;32578;50.710;5.026;2023-04-07T03:46:00;1;1;
46839;PMS5003;32578;50.710;5.026;2023-04-07T03:48:23;1;1;
46839;PMS5003;32578;50.710;5.026;2023-04-07T03:50:48;2;2;
46839;PMS5003;32578;50.710;5.026;2023-04-07T03:53:14;2;2;
46839;PMS5003;32578;50.710;5.026;2023-04-07T03:55:42;2;2;
46839;PMS5003;32578;50.710;5.026;2023-04-07T03:58:10;6;2;
46839;PMS5003;32578;50.710;5.026;2023-04-07T04:00:35;2;2;
46839;PMS5003;32578;50.710;5.026;2023-04-07T04:03:01;2;2;
46839;PMS5003;32578;50.710;5.026;2023-04-07T04:05:27;2;2;
46839;PMS5003;32578;50.710;5.026;2023-04-07T04:07:53;2;2;
46839;PMS5003;32578;50.710;5.026;2023-04-07T04:10:19;1;1;
46839;PMS5003;32578;50.710;5.026;2023-04-07T04:12:45;4;4;
46839;PMS5003;32578;50.710;5.026;2023-04-07T04:15:11;2;2;
46839;PMS5003;32578;50.710;5.026;2023-04-07T04:17:37;3;3;
46839;PMS5003;32578;50.710;5.026;2023-04-07T04:20:05;0;0;
46839;PMS5003;32578;50.710;5.026;2023-04-07T04:22:31;3;3;
46839;PMS5003;32578;50.710;5.026;2023-04-07T04:24:57;1;1;
46839;PMS5003;32578;50.710;5.026;2023-04-07T04:27:24;1;1;
46839;PMS5003;32578;50.710;5.026;2023-04-07T04:29:50;2;2;
46839;PMS5003;32578;50.710;5.026;2023-04-07T04:32:15;4;4;
46839;PMS5003;32578;50.710;5.026;2023-04-07T04:34:41;4;4;
46839;PMS5003;32578;50.710;5.026;2023-04-07T04:37:08;1;1;
46839;PMS5003;32578;50.710;5.026;2023-04-07T04:39:31;3;3;
46839;PMS5003;32578;50.710;5.026;2023-04-07T04:41:56;2;2;
46839;PMS5003;32578;50.710;5.026;2023-04-07T04:44:24;2;2;
46839;PMS5003;32578;50.710;5.026;2023-04-07T04:46:52;1;1;
46839;PMS5003;32578;50.710;5.026;2023-04-07T04:49:17;3;3;
46839;PMS5003;32578;50.710;5.026;2023-04-07T04:51:42;1;1;
46839;PMS5003;32578;50.710;5.026;2023-04-07T04:54:07;2;2;
46839;PMS5003;32578;50.710;5.026;2023-04-07T04:56:34;2;2;
46839;PMS5003;32578;50.710;5.026;2023-04-07T04:59:00;3;3;
46839;PMS5003;32578;50.710;5.026;2023-04-07T05:01:26;3;3;
46839;PMS5003;32578;50.710;5.026;2023-04-07T05:03:51;2;2;
46839;PMS5003;32578;50.710;5.026;2023-04-07T05:06:17;3;3;
46839;PMS5003;32578;50.710;5.026;2023-04-07T05:08:43;3;3;
46839;PMS5003;32578;50.710;5.026;2023-04-07T05:11:11;0;0;
46839;PMS5003;32578;50.710;5.026;2023-04-07T05:13:35;1;1;
46839;PMS5003;32578;50.710;5.026;2023-04-07T05:16:00;1;1;
46839;PMS5003;32578;50.710;5.026;2023-04-07T05:18:27;3;3;
46839;PMS5003;32578;50.710;5.026;2023-04-07T05:20:51;2;2;
46839;PMS5003;32578;50.710;5.026;2023-04-07T05:23:17;2;2;
46839;PMS5003;32578;50.710;5.026;2023-04-07T05:25:42;2;2;
46839;PMS5003;32578;50.710;5.026;2023-04-07T05:28:10;3;3;
46839;PMS5003;32578;50.710;5.026;2023-04-07T05:30:33;2;2;
46839;PMS5003;32578;50.710;5.026;2023-04-07T05:32:59;2;2;
46839;PMS5003;32578;50.710;5.026;2023-04-07T05:35:26;2;2;
46839;PMS5003;32578;50.710;5.026;2023-04-07T05:37:52;4;4;
46839;PMS5003;32578;50.710;5.026;2023-04-07T05:40:19;3;3;
46839;PMS5003;32578;50.710;5.026;2023-04-07T05:42:43;3;3;
46839;PMS5003;32578;50.710;5.026;2023-04-07T05:45:10;3;3;
46839;PMS5003;32578;50.710;5.026;2023-04-07T05:47:38;3;3;
46839;PMS5003;32578;50.710;5.026;2023-04-07T05:50:03;4;4;
46839;PMS5003;32578;50.710;5.026;2023-04-07T05:52:28;2;2;
46839;PMS5003;32578;50.710;5.026;2023-04-07T05:54:53;1;1;
46839;PMS5003;32578;50.710;5.026;2023-04-07T05:57:20;0;0;
46839;PMS5003;32578;50.710;5.026;2023-04-07T05:59:47;2;2;
46839;PMS5003;32578;50.710;5.026;2023-04-07T06:02:15;1;1;
46839;PMS5003;32578;50.710;5.026;2023-04-07T06:04:37;2;2;
46839;PMS5003;32578;50.710;5.026;2023-04-07T06:07:03;2;2;
46839;PMS5003;32578;50.710;5.026;2023-04-07T06:09:30;0;0;
46839;PMS5003;32578;50.710;5.026;2023-04-07T06:11:53;2;2;
46839;PMS5003;32578;50.710;5.026;2023-04-07T06:14:18;2;2;
46839;PMS5003;32578;50.710;5.026;2023-04-07T06:16:45;0;0;
46839;PMS5003;32578;50.710;5.026;2023-04-07T06:19:13;1;1;
46839;PMS5003;32578;50.710;5.026;2023-04-07T06:21:39;2;2;
46839;PMS5003;32578;50.710;5.026;2023-04-07T06:24:06;1;1;
46839;PMS5003;32578;50.710;5.026;2023-04-07T06:26:32;1;1;
46839;PMS5003;32578;50.710;5.026;2023-04-07T06:28:58;4;4;
46839;PMS5003;32578;50.710;5.026;2023-04-07T06:31:25;2;2;
46839;PMS5003;32578;50.710;5.026;2023-04-07T06:33:49;2;2;
46839;PMS5003;32578;50.710;5.026;2023-04-07T06:36:14;2;2;
46839;PMS5003;32578;50.710;5.026;2023-04-07T06:38:40;2;2;
46839;PMS5003;32578;50.710;5.026;2023-04-07T06:41:08;1;1;
46839;PMS5003;32578;50.710;5.026;2023-04-07T06:43:33;1;1;
46839;PMS5003;32578;50.710;5.026;2023-04-07T06:46:00;1;1;
46839;PMS5003;32578;50.710;5.026;2023-04-07T06:48:25;3;3;
46839;PMS5003;32578;50.710;5.026;2023-04-07T06:50:52;3;3;
46839;PMS5003;32578;50.710;5.026;2023-04-07T06:53:17;2;2;
46839;PMS5003;32578;50.710;5.026;2023-04-07T06:55:43;1;1;
46839;PMS5003;32578;50.710;5.026;2023-04-07T06:58:10;5;5;
46839;PMS5003;32578;50.710;5.026;2023-04-07T07:00:36;3;3;
46839;PMS5003;32578;50.710;5.026;2023-04-07T07:03:01;1;1;
46839;PMS5003;32578;50.710;5.026;2023-04-07T07:05:26;3;3;
46839;PMS5003;32578;50.710;5.026;2023-04-07T07:07:52;1;1;
46839;PMS5003;32578;50.710;5.026;2023-04-07T07:10:18;2;2;
46839;PMS5003;32578;50.710;5.026;2023-04-07T07:12:44;2;2;
46839;PMS5003;32578;50.710;5.026;2023-04-07T07:15:10;2;2;
46839;PMS5003;32578;50.710;5.026;2023-04-07T07:17:38;1;1;
46839;PMS5003;32578;50.710;5.026;2023-04-07T07:20:01;2;2;
46839;PMS5003;32578;50.710;5.026;2023-04-07T07:22:27;2;2;
46839;PMS5003;32578;50.710;5.026;2023-04-07T07:24:52;4;4;
46839;PMS5003;32578;50.710;5.026;2023-04-07T07:27:17;2;2;
46839;PMS5003;32578;50.710;5.026;2023-04-07T07:29:44;2;2;
46839;PMS5003;32578;50.710;5.026;2023-04-07T07:32:11;2;2;
46839;PMS5003;32578;50.710;5.026;2023-04-07T07:34:36;8;8;
46839;PMS5003;32578;50.710;5.026;2023-04-07T07:37:02;8;8;
46839;PMS5003;32578;50.710;5.026;2023-04-07T07:39:29;4;4;
46839;PMS5003;32578;50.710;5.026;2023-04-07T07:41:55;2;2;
46839;PMS5003;32578;50.710;5.026;2023-04-07T07:44:21;3;3;
46839;PMS5003;32578;50.710;5.026;2023-04-07T07:46:48;4;4;
46839;PMS5003;32578;50.710;5.026;2023-04-07T07:49:14;3;3;
46839;PMS5003;32578;50.710;5.026;2023-04-07T07:51:38;4;4;
46839;PMS5003;32578;50.710;5.026;2023-04-07T07:54:04;6;6;
46839;PMS5003;32578;50.710;5.026;2023-04-07T07:56:29;3;3;
46839;PMS5003;32578;50.710;5.026;2023-04-07T07:58:55;4;4;
46839;PMS5003;32578;50.710;5.026;2023-04-07T08:01:21;4;4;
46839;PMS5003;32578;50.710;5.026;2023-04-07T08:03:47;5;5;
46839;PMS5003;32578;50.710;5.026;2023-04-07T08:06:12;4;4;
46839;PMS5003;32578;50.710;5.026;2023-04-07T08:08:38;2;2;
46839;PMS5003;32578;50.710;5.026;2023-04-07T08:11:03;5;5;
46839;PMS5003;32578;50.710;5.026;2023-04-07T08:13:29;3;3;
46839;PMS5003;32578;50.710;5.026;2023-04-07T08:15:55;2;2;
46839;PMS5003;32578;50.710;5.026;2023-04-07T08:18:21;2;2;
46839;PMS5003;32578;50.710;5.026;2023-04-07T08:20:46;4;4;
46839;PMS5003;32578;50.710;5.026;2023-04-07T08:23:12;5;5;
46839;PMS5003;32578;50.710;5.026;2023-04-07T08:25:38;6;6;
46839;PMS5003;32578;50.710;5.026;2023-04-07T08:28:05;4;4;
46839;PMS5003;32578;50.710;5.026;2023-04-07T08:30:32;3;3;
46839;PMS5003;32578;50.710;5.026;2023-04-07T08:32:58;0;0;
46839;PMS5003;32578;50.710;5.026;2023-04-07T08:35:24;4;4;
46839;PMS5003;32578;50.710;5.026;2023-04-07T08:37:51;1;1;
46839;PMS5003;32578;50.710;5.026;2023-04-07T08:40:15;4;4;
46839;PMS5003;32578;50.710;5.026;2023-04-07T08:42:41;4;4;
46839;PMS5003;32578;50.710;5.026;2023-04-07T08:45:06;5;5;
46839;PMS5003;32578;50.710;5.026;2023-04-07T08:47:33;5;5;
46839;PMS5003;32578;50.710;5.026;2023-04-07T08:49:59;3;3;
46839;PMS5003;32578;50.710;5.026;2023-04-07T08:52:32;4;4;
46839;PMS5003;32578;50.710;5.026;2023-04-07T08:54:50;2;2;
46839;PMS5003;32578;50.710;5.026;2023-04-07T08:57:17;4;4;
46839;PMS5003;32578;50.710;5.026;2023-04-07T08:59:41;3;3;
46839;PMS5003;32578;50.710;5.026;2023-04-07T09:02:07;3;3;
46839;PMS5003;32578;50.710;5.026;2023-04-07T09:04:33;9;9;
46839;PMS5003;32578;50.710;5.026;2023-04-07T09:07:01;4;4;
46839;PMS5003;32578;50.710;5.026;2023-04-07T09:09:24;0;0;
46839;PMS5003;32578;50.710;5.026;2023-04-07T09:11:50;4;4;
46839;PMS5003;32578;50.710;5.026;2023-04-07T09:14:15;6;6;
46839;PMS5003;32578;50.710;5.026;2023-04-07T09:16:40;3;3;
46839;PMS5003;32578;50.710;5.026;2023-04-07T09:19:07;3;3;
46839;PMS5003;32578;50.710;5.026;2023-04-07T09:21:46;3;3;
46839;PMS5003;32578;50.710;5.026;2023-04-07T09:23:59;3;3;
46839;PMS5003;32578;50.710;5.026;2023-04-07T09:26:26;0;0;
46839;PMS5003;32578;50.710;5.026;2023-04-07T09:28:53;3;3;
46839;PMS5003;32578;50.710;5.026;2023-04-07T09:31:18;4;4;
46839;PMS5003;32578;50.710;5.026;2023-04-07T09:33:43;10;10;
46839;PMS5003;32578;50.710;5.026;2023-04-07T09:36:10;8;8;
46839;PMS5003;32578;50.710;5.026;2023-04-07T09:38:35;3;3;
46839;PMS5003;32578;50.710;5.026;2023-04-07T09:41:04;6;6;
46839;PMS5003;32578;50.710;5.026;2023-04-07T09:43:25;5;5;
46839;PMS5003;32578;50.710;5.026;2023-04-07T09:45:50;4;4;
46839;PMS5003;32578;50.710;5.026;2023-04-07T09:48:18;4;4;
46839;PMS5003;32578;50.710;5.026;2023-04-07T09:50:41;7;7;
46839;PMS5003;32578;50.710;5.026;2023-04-07T09:53:07;5;5;
46839;PMS5003;32578;50.710;5.026;2023-04-07T09:55:33;6;6;
46839;PMS5003;32578;50.710;5.026;2023-04-07T09:57:58;7;7;
46839;PMS5003;32578;50.710;5.026;2023-04-07T10:00:24;5;5;
46839;PMS5003;32578;50.710;5.026;2023-04-07T10:02:51;6;6;
46839;PMS5003;32578;50.710;5.026;2023-04-07T10:05:15;7;7;
46839;PMS5003;32578;50.710;5.026;2023-04-07T10:07:41;4;4;
46839;PMS5003;32578;50.710;5.026;2023-04-07T10:10:07;4;4;
46839;PMS5003;32578;50.710;5.026;2023-04-07T10:12:33;9;9;
46839;PMS5003;32578;50.710;5.026;2023-04-07T10:15:00;7;7;
46839;PMS5003;32578;50.710;5.026;2023-04-07T10:17:25;7;7;
46839;PMS5003;32578;50.710;5.026;2023-04-07T10:19:53;4;4;
46839;PMS5003;32578;50.710;5.026;2023-04-07T10:22:18;4;4;
46839;PMS5003;32578;50.710;5.026;2023-04-07T10:24:45;6;6;
46839;PMS5003;32578;50.710;5.026;2023-04-07T10:27:11;4;4;
46839;PMS5003;32578;50.710;5.026;2023-04-07T10:29:39;1;1;
46839;PMS5003;32578;50.710;5.026;2023-04-07T10:32:01;1;1;
46839;PMS5003;32578;50.710;5.026;2023-04-07T10:35:02;5;5;
46839;PMS5003;32578;50.710;5.026;2023-04-07T10:37:13;2;2;
46839;PMS5003;32578;50.710;5.026;2023-04-07T10:39:23;3;3;
46839;PMS5003;32578;50.710;5.026;2023-04-07T10:41:48;5;4;
46839;PMS5003;32578;50.710;5.026;2023-04-07T10:44:48;3;3;
46839;PMS5003;32578;50.710;5.026;2023-04-07T10:47:05;3;3;
46839;PMS5003;32578;50.710;5.026;2023-04-07T10:49:08;4;4;
46839;PMS5003;32578;50.710;5.026;2023-04-07T10:51:34;1;1;
46839;PMS5003;32578;50.710;5.026;2023-04-07T10:54:20;3;3;
46839;PMS5003;32578;50.710;5.026;2023-04-07T10:57:18;2;2;
46839;PMS5003;32578;50.710;5.026;2023-04-07T10:59:14;3;3;
46839;PMS5003;32578;50.710;5.026;2023-04-07T11:01:37;2;2;
46839;PMS5003;32578;50.710;5.026;2023-04-07T11:04:03;5;5;
46839;PMS5003;32578;50.710;5.026;2023-04-07T11:06:29;4;4;
46839;PMS5003;32578;50.710;5.026;2023-04-07T11:08:55;3;3;
46839;PMS5003;32578;50.710;5.026;2023-04-07T11:11:36;1;1;
46839;PMS5003;32578;50.710;5.026;2023-04-07T11:13:47;2;2;
46839;PMS5003;32578;50.710;5.026;2023-04-07T11:16:11;4;4;
46839;PMS5003;32578;50.710;5.026;2023-04-07T11:18:38;4;4;
46839;PMS5003;32578;50.710;5.026;2023-04-07T11:21:04;1;1;
46839;PMS5003;32578;50.710;5.026;2023-04-07T11:23:29;1;1;
46839;PMS5003;32578;50.710;5.026;2023-04-07T11:25:58;3;3;
46839;PMS5003;32578;50.710;5.026;2023-04-07T11:28:22;4;4;
46839;PMS5003;32578;50.710;5.026;2023-04-07T11:30:46;4;4;
46839;PMS5003;32578;50.710;5.026;2023-04-07T11:33:13;3;3;
46839;PMS5003;32578;50.710;5.026;2023-04-07T11:35:36;4;4;
46839;PMS5003;32578;50.710;5.026;2023-04-07T11:38:02;3;3;
46839;PMS5003;32578;50.710;5.026;2023-04-07T11:40:31;4;4;
46839;PMS5003;32578;50.710;5.026;2023-04-07T11:42:53;4;4;
46839;PMS5003;32578;50.710;5.026;2023-04-07T11:45:19;2;2;
46839;PMS5003;32578;50.710;5.026;2023-04-07T11:47:46;4;4;
46839;PMS5003;32578;50.710;5.026;2023-04-07T11:50:10;4;4;
46839;PMS5003;32578;50.710;5.026;2023-04-07T11:52:43;2;2;
46839;PMS5003;32578;50.710;5.026;2023-04-07T11:55:01;4;4;
46839;PMS5003;32578;50.710;5.026;2023-04-07T11:57:28;4;4;
46839;PMS5003;32578;50.710;5.026;2023-04-07T12:00:04;4;4;
46839;PMS5003;32578;50.710;5.026;2023-04-07T12:02:29;0;0;
46839;PMS5003;32578;50.710;5.026;2023-04-07T12:04:54;4;4;
46839;PMS5003;32578;50.710;5.026;2023-04-07T12:07:11;3;3;
46839;PMS5003;32578;50.710;5.026;2023-04-07T12:09:39;4;4;
46839;PMS5003;32578;50.710;5.026;2023-04-07T12:12:04;1;1;
46839;PMS5003;32578;50.710;5.026;2023-04-07T12:14:29;2;2;
46839;PMS5003;32578;50.710;5.026;2023-04-07T12:16:55;4;4;
46839;PMS5003;32578;50.710;5.026;2023-04-07T12:19:22;3;3;
46839;PMS5003;32578;50.710;5.026;2023-04-07T12:21:48;5;5;
46839;PMS5003;32578;50.710;5.026;2023-04-07T12:24:14;3;3;
46839;PMS5003;32578;50.710;5.026;2023-04-07T12:26:40;3;3;
46839;PMS5003;32578;50.710;5.026;2023-04-07T12:29:05;3;3;
46839;PMS5003;32578;50.710;5.026;2023-04-07T12:31:30;5;5;
46839;PMS5003;32578;50.710;5.026;2023-04-07T12:33:56;5;5;
46839;PMS5003;32578;50.710;5.026;2023-04-07T12:36:22;4;4;
46839;PMS5003;32578;50.710;5.026;2023-04-07T12:38:48;3;3;
46839;PMS5003;32578;50.710;5.026;2023-04-07T12:41:13;3;3;
46839;PMS5003;32578;50.710;5.026;2023-04-07T12:43:40;3;3;
46839;PMS5003;32578;50.710;5.026;2023-04-07T12:46:07;4;4;
46839;PMS5003;32578;50.710;5.026;2023-04-07T12:48:34;3;3;
46839;PMS5003;32578;50.710;5.026;2023-04-07T12:51:00;5;5;
46839;PMS5003;32578;50.710;5.026;2023-04-07T12:53:27;4;4;
46839;PMS5003;32578;50.710;5.026;2023-04-07T12:55:55;4;4;
46839;PMS5003;32578;50.710;5.026;2023-04-07T12:58:17;2;2;
46839;PMS5003;32578;50.710;5.026;2023-04-07T13:00:43;5;5;
46839;PMS5003;32578;50.710;5.026;2023-04-07T13:03:11;5;5;
46839;PMS5003;32578;50.710;5.026;2023-04-07T13:05:38;5;5;
46839;PMS5003;32578;50.710;5.026;2023-04-07T13:08:04;3;3;
46839;PMS5003;32578;50.710;5.026;2023-04-07T13:10:28;6;5;
46839;PMS5003;32578;50.710;5.026;2023-04-07T13:12:53;4;4;
46839;PMS5003;32578;50.710;5.026;2023-04-07T13:15:19;5;5;
46839;PMS5003;32578;50.710;5.026;2023-04-07T13:17:46;5;5;
46839;PMS5003;32578;50.710;5.026;2023-04-07T13:20:13;3;3;
46839;PMS5003;32578;50.710;5.026;2023-04-07T13:22:36;4;4;
46839;PMS5003;32578;50.710;5.026;2023-04-07T13:25:03;4;4;
46839;PMS5003;32578;50.710;5.026;2023-04-07T13:27:28;3;3;
46839;PMS5003;32578;50.710;5.026;2023-04-07T13:29:55;3;3;
46839;PMS5003;32578;50.710;5.026;2023-04-07T13:32:23;3;3;
46839;PMS5003;32578;50.710;5.026;2023-04-07T13:34:48;4;4;
46839;PMS5003;32578;50.710;5.026;2023-04-07T13:37:13;4;4;
46839;PMS5003;32578;50.710;5.026;2023-04-07T13:39:40;3;3;
46839;PMS5003;32578;50.710;5.026;2023-04-07T13:42:05;4;4;
46839;PMS5003;32578;50.710;5.026;2023-04-07T13:44:32;1;1;
46839;PMS5003;32578;50.710;5.026;2023-04-07T13:46:59;4;4;
46839;PMS5003;32578;50.710;5.026;2023-04-07T13:49:24;2;2;
46839;PMS5003;32578;50.710;5.026;2023-04-07T13:51:49;3;3;
46839;PMS5003;32578;50.710;5.026;2023-04-07T13:54:16;6;6;
46839;PMS5003;32578;50.710;5.026;2023-04-07T13:56:43;4;4;
46839;PMS5003;32578;50.710;5.026;2023-04-07T13:59:08;7;7;
46839;PMS5003;32578;50.710;5.026;2023-04-07T14:01:34;9;9;
46839;PMS5003;32578;50.710;5.026;2023-04-07T14:04:01;9;9;
46839;PMS5003;32578;50.710;5.026;2023-04-07T14:06:26;7;7;
46839;PMS5003;32578;50.710;5.026;2023-04-07T14:08:54;8;8;
46839;PMS5003;32578;50.710;5.026;2023-04-07T14:11:18;3;3;
46839;PMS5003;32578;50.710;5.026;2023-04-07T14:13:44;10;10;
46839;PMS5003;32578;50.710;5.026;2023-04-07T14:16:08;15;15;
46839;PMS5003;32578;50.710;5.026;2023-04-07T14:18:34;12;12;
46839;PMS5003;32578;50.710;5.026;2023-04-07T14:21:01;10;10;
46839;PMS5003;32578;50.710;5.026;2023-04-07T14:23:28;10;10;
46839;PMS5003;32578;50.710;5.026;2023-04-07T14:25:54;11;11;
46839;PMS5003;32578;50.710;5.026;2023-04-07T14:28:19;10;10;
46839;PMS5003;32578;50.710;5.026;2023-04-07T14:30:48;9;9;
46839;PMS5003;32578;50.710;5.026;2023-04-07T14:33:11;11;11;
46839;PMS5003;32578;50.710;5.026;2023-04-07T14:35:38;7;7;
46839;PMS5003;32578;50.710;5.026;2023-04-07T14:38:06;8;8;
46839;PMS5003;32578;50.710;5.026;2023-04-07T14:40:32;8;8;
46839;PMS5003;32578;50.710;5.026;2023-04-07T14:42:58;9;9;
46839;PMS5003;32578;50.710;5.026;2023-04-07T14:45:26;6;6;
46839;PMS5003;32578;50.710;5.026;2023-04-07T14:47:54;9;9;
46839;PMS5003;32578;50.710;5.026;2023-04-07T14:50:21;6;6;
46839;PMS5003;32578;50.710;5.026;2023-04-07T14:52:45;12;12;
46839;PMS5003;32578;50.710;5.026;2023-04-07T14:55:12;11;11;
46839;PMS5003;32578;50.710;5.026;2023-04-07T14:57:37;10;10;
46839;PMS5003;32578;50.710;5.026;2023-04-07T15:00:04;11;11;
46839;PMS5003;32578;50.710;5.026;2023-04-07T15:02:30;6;6;
46839;PMS5003;32578;50.710;5.026;2023-04-07T15:04:58;10;10;
46839;PMS5003;32578;50.710;5.026;2023-04-07T15:07:25;7;7;
46839;PMS5003;32578;50.710;5.026;2023-04-07T15:09:54;8;8;
46839;PMS5003;32578;50.710;5.026;2023-04-07T15:12:18;9;9;
46839;PMS5003;32578;50.710;5.026;2023-04-07T15:14:49;6;6;
46839;PMS5003;32578;50.710;5.026;2023-04-07T15:17:10;9;9;
46839;PMS5003;32578;50.710;5.026;2023-04-07T15:19:34;10;10;
46839;PMS5003;32578;50.710;5.026;2023-04-07T15:22:00;8;8;
46839;PMS5003;32578;50.710;5.026;2023-04-07T15:24:26;7;7;
46839;PMS5003;32578;50.710;5.026;2023-04-07T15:26:51;11;11;
46839;PMS5003;32578;50.710;5.026;2023-04-07T15:29:17;16;16;
46839;PMS5003;32578;50.710;5.026;2023-04-07T15:31:44;12;12;
46839;PMS5003;32578;50.710;5.026;2023-04-07T15:34:11;15;15;
46839;PMS5003;32578;50.710;5.026;2023-04-07T15:36:37;15;15;
46839;PMS5003;32578;50.710;5.026;2023-04-07T15:39:02;8;8;
46839;PMS5003;32578;50.710;5.026;2023-04-07T15:41:28;4;4;
46839;PMS5003;32578;50.710;5.026;2023-04-07T15:43:54;6;6;
46839;PMS5003;32578;50.710;5.026;2023-04-07T15:46:21;4;4;
46839;PMS5003;32578;50.710;5.026;2023-04-07T15:48:45;5;5;
46839;PMS5003;32578;50.710;5.026;2023-04-07T15:51:11;6;6;
46839;PMS5003;32578;50.710;5.026;2023-04-07T15:53:37;7;7;
46839;PMS5003;32578;50.710;5.026;2023-04-07T15:56:06;2;2;
46839;PMS5003;32578;50.710;5.026;2023-04-07T15:58:31;7;7;
46839;PMS5003;32578;50.710;5.026;2023-04-07T16:00:56;7;7;
46839;PMS5003;32578;50.710;5.026;2023-04-07T16:03:22;5;5;
46839;PMS5003;32578;50.710;5.026;2023-04-07T16:05:48;6;6;
46839;PMS5003;32578;50.710;5.026;2023-04-07T16:08:14;9;6;
46839;PMS5003;32578;50.710;5.026;2023-04-07T16:10:42;6;6;
46839;PMS5003;32578;50.710;5.026;2023-04-07T16:13:09;6;6;
46839;PMS5003;32578;50.710;5.026;2023-04-07T16:15:35;5;5;
46839;PMS5003;32578;50.710;5.026;2023-04-07T16:18:03;5;5;
46839;PMS5003;32578;50.710;5.026;2023-04-07T16:20:26;5;5;
46839;PMS5003;32578;50.710;5.026;2023-04-07T16:22:51;8;8;
46839;PMS5003;32578;50.710;5.026;2023-04-07T16:25:17;6;6;
46839;PMS5003;32578;50.710;5.026;2023-04-07T16:27:43;7;7;
46839;PMS5003;32578;50.710;5.026;2023-04-07T16:30:08;6;6;
46839;PMS5003;32578;50.710;5.026;2023-04-07T16:32:34;14;14;
46839;PMS5003;32578;50.710;5.026;2023-04-07T16:35:00;8;8;
46839;PMS5003;32578;50.710;5.026;2023-04-07T16:37:28;8;8;
46839;PMS5003;32578;50.710;5.026;2023-04-07T16:39:57;6;6;
46839;PMS5003;32578;50.710;5.026;2023-04-07T16:42:23;5;5;